createdAt,value
2023-07-28T00:00:54.513Z,0.00
2023-07-28T00:02:16.168Z,0.00
2023-07-28T00:02:54.507Z,0.00
2023-07-28T00:03:54.478Z,0.00
2023-07-28T00:04:54.400Z,0.00
2023-07-28T00:05:54.384Z,0.00
2023-07-28T00:06:54.376Z,0.00
2023-07-28T00:07:54.367Z,0.00
2023-07-28T00:08:54.422Z,0.00
2023-07-28T00:09:54.341Z,0.00
2023-07-28T00:10:54.319Z,0.00
2023-07-28T00:11:54.322Z,0.00
2023-07-28T00:12:54.303Z,0.00
2023-07-28T00:13:54.303Z,0.00
2023-07-28T00:14:54.345Z,0.00
2023-07-28T00:15:54.278Z,0.00
2023-07-28T00:16:54.337Z,0.00
2023-07-28T00:17:54.356Z,0.00
2023-07-28T00:18:54.283Z,0.00
2023-07-28T00:19:54.220Z,0.00
2023-07-28T00:20:54.212Z,0.00
2023-07-28T00:21:54.202Z,0.00
2023-07-28T00:22:54.195Z,0.00
2023-07-28T00:23:54.245Z,0.00
2023-07-28T00:24:54.161Z,0.00
2023-07-28T00:25:54.161Z,0.00
2023-07-28T00:26:54.136Z,0.00
2023-07-28T00:27:54.156Z,0.00
2023-07-28T00:28:54.216Z,0.00
2023-07-28T00:29:54.113Z,0.00
2023-07-28T00:30:54.140Z,0.00
2023-07-28T00:31:54.122Z,0.00
2023-07-28T00:32:54.106Z,0.00
2023-07-28T00:33:54.078Z,0.00
2023-07-28T00:34:54.214Z,0.00
2023-07-28T00:35:54.050Z,0.00
2023-07-28T00:37:01.065Z,0.00
2023-07-28T00:37:54.019Z,0.00
2023-07-28T00:38:54.000Z,0.00
2023-07-28T00:39:54.043Z,0.00
2023-07-28T00:40:54.005Z,0.00
2023-07-28T00:41:53.984Z,0.00
2023-07-28T00:42:55.419Z,0.00
2023-07-28T00:43:53.947Z,0.00
2023-07-28T00:44:53.974Z,0.00
2023-07-28T00:45:53.966Z,0.00
2023-07-28T00:46:53.899Z,0.00
2023-07-28T00:47:54.116Z,0.00
2023-07-28T00:48:53.874Z,0.00
2023-07-28T00:49:53.921Z,0.00
2023-07-28T00:50:53.849Z,0.00
2023-07-28T00:51:53.850Z,0.00
2023-07-28T00:52:53.827Z,0.00
2023-07-28T00:53:53.889Z,0.00
2023-07-28T00:54:53.804Z,0.00
2023-07-28T00:55:53.810Z,0.00
2023-07-28T00:56:53.800Z,0.00
2023-07-28T00:57:53.777Z,0.00
2023-07-28T00:58:53.763Z,0.00
2023-07-28T00:59:53.807Z,0.00
2023-07-28T01:00:53.737Z,0.00
2023-07-28T01:01:53.767Z,0.00
2023-07-28T01:02:53.745Z,0.00
2023-07-28T01:03:53.760Z,0.00
2023-07-28T01:04:53.739Z,0.00
2023-07-28T01:05:53.737Z,0.00
2023-07-28T01:06:53.661Z,0.00
2023-07-28T01:07:53.656Z,0.00
2023-07-28T01:08:53.634Z,0.00
2023-07-28T01:09:53.684Z,0.00
2023-07-28T01:10:53.631Z,0.00
2023-07-28T01:11:53.680Z,0.00
2023-07-28T01:12:53.675Z,0.00
2023-07-28T01:13:53.618Z,0.00
2023-07-28T01:14:53.566Z,0.00
2023-07-28T01:15:53.602Z,0.00
2023-07-28T01:16:53.589Z,0.00
2023-07-28T01:17:53.623Z,0.00
2023-07-28T01:18:53.526Z,0.00
2023-07-28T01:19:53.534Z,0.00
2023-07-28T01:20:53.499Z,0.00
2023-07-28T01:21:53.478Z,0.00
2023-07-28T01:22:53.517Z,0.00
2023-07-28T01:23:53.459Z,0.00
2023-07-28T01:24:53.454Z,0.00
2023-07-28T01:25:53.436Z,0.00
2023-07-28T01:26:53.478Z,0.00
2023-07-28T01:27:53.440Z,0.00
2023-07-28T01:28:53.403Z,0.00
2023-07-28T01:29:53.389Z,0.00
2023-07-28T01:30:53.379Z,0.00
2023-07-28T01:31:53.377Z,0.00
2023-07-28T01:32:53.362Z,0.00
2023-07-28T01:33:53.382Z,0.00
2023-07-28T01:34:53.341Z,0.00
2023-07-28T01:35:53.310Z,0.00
2023-07-28T01:36:53.318Z,0.00
2023-07-28T01:37:53.298Z,0.00
2023-07-28T01:38:53.328Z,0.00
2023-07-28T01:39:53.287Z,0.00
2023-07-28T01:40:53.313Z,0.00
2023-07-28T01:41:53.289Z,0.00
2023-07-28T01:42:53.240Z,0.00
2023-07-28T01:43:53.244Z,0.00
2023-07-28T01:44:53.336Z,0.00
2023-07-28T01:45:53.250Z,0.00
2023-07-28T01:46:53.197Z,0.00
2023-07-28T01:47:53.244Z,0.00
2023-07-28T01:48:53.166Z,0.00
2023-07-28T01:49:53.148Z,0.00
2023-07-28T01:50:53.198Z,0.00
2023-07-28T01:51:53.139Z,0.00
2023-07-28T01:52:53.117Z,0.00
2023-07-28T01:53:53.097Z,0.00
2023-07-28T01:54:53.099Z,0.00
2023-07-28T01:55:53.082Z,0.00
2023-07-28T01:56:53.107Z,0.00
2023-07-28T01:57:53.055Z,0.00
2023-07-28T01:58:53.049Z,0.00
2023-07-28T01:59:53.031Z,0.00
2023-07-28T02:00:53.056Z,0.00
2023-07-28T02:01:53.064Z,0.00
2023-07-28T02:02:53.029Z,0.00
2023-07-28T02:03:53.046Z,0.00
2023-07-28T02:04:52.984Z,0.00
2023-07-28T02:05:53.018Z,0.00
2023-07-28T02:06:52.960Z,0.00
2023-07-28T02:07:52.968Z,0.00
2023-07-28T02:08:52.941Z,0.00
2023-07-28T02:09:52.912Z,0.00
2023-07-28T02:10:52.915Z,0.00
2023-07-28T02:11:52.958Z,0.00
2023-07-28T02:12:52.881Z,0.00
2023-07-28T02:13:52.868Z,0.00
2023-07-28T02:14:52.857Z,0.00
2023-07-28T02:15:52.843Z,0.00
2023-07-28T02:16:52.850Z,0.00
2023-07-28T02:17:52.978Z,0.00
2023-07-28T02:18:52.806Z,0.00
2023-07-28T02:19:52.855Z,0.00
2023-07-28T02:20:52.784Z,0.00
2023-07-28T02:21:52.773Z,0.00
2023-07-28T02:22:52.775Z,0.00
2023-07-28T02:23:52.743Z,0.00
2023-07-28T02:24:52.751Z,0.00
2023-07-28T02:25:52.737Z,0.00
2023-07-28T02:26:52.761Z,0.00
2023-07-28T02:27:52.727Z,0.00
2023-07-28T02:28:52.732Z,0.00
2023-07-28T02:29:52.670Z,0.00
2023-07-28T02:30:52.700Z,0.00
2023-07-28T02:31:52.662Z,0.00
2023-07-28T02:32:52.802Z,0.00
2023-07-28T02:33:52.622Z,0.00
2023-07-28T02:34:52.686Z,0.00
2023-07-28T02:35:52.601Z,0.00
2023-07-28T02:36:52.589Z,0.00
2023-07-28T02:37:52.715Z,0.00
2023-07-28T02:38:52.577Z,0.00
2023-07-28T02:39:52.576Z,0.00
2023-07-28T02:40:52.566Z,0.00
2023-07-28T02:41:52.585Z,0.00
2023-07-28T02:42:52.522Z,0.00
2023-07-28T02:43:52.502Z,0.00
2023-07-28T02:44:52.510Z,0.00
2023-07-28T02:45:52.498Z,0.00
2023-07-28T02:46:52.554Z,0.00
2023-07-28T02:47:52.554Z,0.00
2023-07-28T02:48:52.443Z,0.00
2023-07-28T02:49:52.435Z,0.00
2023-07-28T02:50:52.455Z,0.00
2023-07-28T02:51:52.577Z,0.00
2023-07-28T02:52:52.409Z,0.00
2023-07-28T02:53:52.429Z,0.00
2023-07-28T02:54:52.380Z,0.00
2023-07-28T02:55:52.377Z,0.00
2023-07-28T02:56:52.355Z,0.00
2023-07-28T02:57:52.338Z,0.00
2023-07-28T02:58:52.340Z,0.00
2023-07-28T02:59:52.419Z,0.00
2023-07-28T03:00:52.307Z,0.00
2023-07-28T03:01:52.336Z,0.00
2023-07-28T03:02:52.448Z,0.00
2023-07-28T03:03:52.311Z,0.00
2023-07-28T03:04:52.322Z,0.00
2023-07-28T03:05:52.248Z,0.00
2023-07-28T03:06:52.239Z,0.00
2023-07-28T03:07:52.227Z,0.00
2023-07-28T03:08:52.280Z,0.00
2023-07-28T03:09:52.198Z,0.00
2023-07-28T03:10:52.226Z,0.00
2023-07-28T03:11:52.171Z,0.00
2023-07-28T03:12:52.162Z,0.00
2023-07-28T03:13:52.149Z,0.00
2023-07-28T03:14:52.198Z,0.00
2023-07-28T03:15:52.194Z,0.00
2023-07-28T03:16:52.111Z,0.00
2023-07-28T03:17:52.140Z,0.00
2023-07-28T03:18:52.093Z,0.00
2023-07-28T03:19:52.129Z,0.00
2023-07-28T03:20:52.074Z,0.00
2023-07-28T03:21:52.056Z,0.00
2023-07-28T03:22:52.137Z,0.00
2023-07-28T03:23:52.038Z,0.00
2023-07-28T03:24:52.031Z,0.00
2023-07-28T03:25:52.013Z,0.00
2023-07-28T03:26:51.998Z,0.00
2023-07-28T03:27:52.004Z,0.00
2023-07-28T03:28:52.048Z,0.00
2023-07-28T03:29:51.995Z,0.00
2023-07-28T03:30:52.020Z,0.00
2023-07-28T03:31:52.008Z,4.00
2023-07-28T03:32:52.014Z,4.00
2023-07-28T03:33:51.908Z,4.00
2023-07-28T03:34:51.942Z,4.00
2023-07-28T03:35:51.929Z,0.00
2023-07-28T03:36:51.924Z,4.00
2023-07-28T03:37:51.867Z,4.00
2023-07-28T03:38:51.863Z,4.00
2023-07-28T03:39:51.841Z,4.00
2023-07-28T03:40:51.895Z,4.00
2023-07-28T03:41:51.826Z,4.00
2023-07-28T03:42:51.823Z,4.00
2023-07-28T03:43:51.797Z,4.00
2023-07-28T03:44:51.788Z,4.00
2023-07-28T03:45:51.885Z,8.00
2023-07-28T03:46:51.800Z,8.00
2023-07-28T03:47:51.806Z,8.00
2023-07-28T03:48:51.742Z,8.00
2023-07-28T03:49:51.725Z,8.00
2023-07-28T03:50:51.770Z,12.00
2023-07-28T03:51:51.705Z,12.00
2023-07-28T03:52:51.694Z,12.00
2023-07-28T03:53:51.750Z,12.00
2023-07-28T03:54:51.673Z,16.00
2023-07-28T03:55:51.690Z,20.00
2023-07-28T03:56:51.698Z,16.00
2023-07-28T03:57:51.642Z,16.00
2023-07-28T03:58:51.683Z,20.00
2023-07-28T03:59:51.613Z,24.00
2023-07-28T04:00:51.598Z,24.00
2023-07-28T04:01:51.623Z,24.00
2023-07-28T04:02:51.582Z,36.00
2023-07-28T04:03:51.632Z,44.00
2023-07-28T04:04:51.589Z,52.00
2023-07-28T04:05:51.528Z,60.00
2023-07-28T04:06:51.606Z,60.00
2023-07-28T04:07:51.542Z,60.00
2023-07-28T04:08:51.499Z,60.00
2023-07-28T04:09:51.503Z,56.00
2023-07-28T04:10:51.473Z,60.00
2023-07-28T04:11:51.505Z,64.00
2023-07-28T04:12:51.462Z,68.00
2023-07-28T04:13:51.444Z,72.00
2023-07-28T04:14:51.498Z,72.00
2023-07-28T04:15:51.425Z,72.00
2023-07-28T04:16:51.404Z,80.00
2023-07-28T04:17:51.524Z,72.00
2023-07-28T04:18:51.380Z,76.00
2023-07-28T04:19:51.367Z,76.00
2023-07-28T04:20:51.358Z,72.00
2023-07-28T04:21:51.342Z,76.00
2023-07-28T04:22:51.362Z,76.00
2023-07-28T04:23:51.344Z,92.00
2023-07-28T04:24:51.346Z,100.00
2023-07-28T04:25:51.300Z,112.00
2023-07-28T04:26:51.305Z,124.00
2023-07-28T04:27:51.301Z,128.00
2023-07-28T04:28:51.274Z,140.00
2023-07-28T04:29:51.355Z,164.00
2023-07-28T04:30:51.249Z,160.00
2023-07-28T04:31:51.299Z,160.00
2023-07-28T04:32:51.230Z,188.00
2023-07-28T04:33:51.218Z,200.00
2023-07-28T04:34:51.248Z,200.00
2023-07-28T04:35:51.186Z,188.00
2023-07-28T04:36:51.173Z,172.00
2023-07-28T04:37:51.152Z,192.00
2023-07-28T04:38:51.172Z,180.00
2023-07-28T04:39:51.168Z,172.00
2023-07-28T04:40:51.131Z,188.00
2023-07-28T04:41:51.109Z,192.00
2023-07-28T04:42:51.100Z,208.00
2023-07-28T04:43:51.090Z,208.00
2023-07-28T04:44:51.151Z,244.00
2023-07-28T04:45:51.094Z,256.00
2023-07-28T04:46:51.053Z,260.00
2023-07-28T04:47:51.183Z,300.00
2023-07-28T04:48:51.041Z,276.00
2023-07-28T04:49:51.025Z,256.00
2023-07-28T04:50:51.073Z,312.00
2023-07-28T04:51:50.992Z,352.00
2023-07-28T04:52:51.007Z,352.00
2023-07-28T04:53:50.966Z,292.00
2023-07-28T04:54:50.967Z,272.00
2023-07-28T04:55:50.942Z,232.00
2023-07-28T04:56:51.032Z,244.00
2023-07-28T04:57:50.919Z,272.00
2023-07-28T04:58:50.912Z,308.00
2023-07-28T04:59:50.901Z,368.00
2023-07-28T05:00:50.929Z,392.00
2023-07-28T05:01:50.874Z,324.00
2023-07-28T05:02:50.952Z,324.00
2023-07-28T05:03:50.858Z,332.00
2023-07-28T05:04:50.861Z,384.00
2023-07-28T05:05:50.823Z,328.00
2023-07-28T05:06:50.842Z,364.00
2023-07-28T05:07:50.806Z,396.00
2023-07-28T05:08:50.811Z,412.00
2023-07-28T05:09:50.783Z,444.00
2023-07-28T05:10:50.784Z,436.00
2023-07-28T05:11:50.768Z,456.00
2023-07-28T05:12:50.753Z,484.00
2023-07-28T05:13:50.768Z,472.00
2023-07-28T05:14:50.726Z,388.00
2023-07-28T05:15:50.800Z,296.00
2023-07-28T05:16:50.717Z,280.00
2023-07-28T05:17:50.732Z,304.00
2023-07-28T05:18:50.700Z,328.00
2023-07-28T05:19:50.681Z,312.00
2023-07-28T05:20:50.661Z,296.00
2023-07-28T05:21:50.632Z,360.00
2023-07-28T05:22:50.632Z,324.00
2023-07-28T05:23:50.662Z,324.00
2023-07-28T05:24:52.165Z,332.00
2023-07-28T05:25:50.596Z,300.00
2023-07-28T05:26:50.580Z,324.00
2023-07-28T05:27:50.611Z,424.00
2023-07-28T05:28:50.587Z,480.00
2023-07-28T05:29:50.546Z,496.00
2023-07-28T05:30:50.544Z,472.00
2023-07-28T05:31:50.520Z,364.00
2023-07-28T05:32:50.528Z,380.00
2023-07-28T05:33:50.508Z,452.00
2023-07-28T05:34:50.508Z,492.00
2023-07-28T05:35:50.500Z,540.00
2023-07-28T05:36:50.539Z,648.00
2023-07-28T05:37:50.451Z,688.00
2023-07-28T05:38:50.435Z,696.00
2023-07-28T05:39:50.455Z,700.00
2023-07-28T05:40:50.413Z,672.00
2023-07-28T05:41:52.090Z,760.00
2023-07-28T05:42:50.425Z,768.00
2023-07-28T05:43:52.030Z,708.00
2023-07-28T05:44:50.387Z,708.00
2023-07-28T05:45:50.356Z,592.00
2023-07-28T05:46:50.409Z,516.00
2023-07-28T05:47:50.387Z,496.00
2023-07-28T05:48:50.322Z,584.00
2023-07-28T05:49:50.343Z,724.00
2023-07-28T05:50:50.285Z,700.00
2023-07-28T05:51:50.284Z,888.00
2023-07-28T05:52:50.263Z,956.00
2023-07-28T05:53:50.258Z,924.00
2023-07-28T05:54:50.268Z,808.00
2023-07-28T05:55:50.241Z,864.00
2023-07-28T05:56:50.234Z,868.00
2023-07-28T05:57:50.228Z,976.00
2023-07-28T05:58:50.197Z,784.00
2023-07-28T05:59:50.185Z,720.00
2023-07-28T06:00:50.244Z,652.00
2023-07-28T06:01:50.201Z,700.00
2023-07-28T06:02:50.209Z,648.00
2023-07-28T06:03:50.180Z,648.00
2023-07-28T06:04:50.143Z,640.00
2023-07-28T06:05:50.124Z,652.00
2023-07-28T06:06:50.106Z,648.00
2023-07-28T06:07:50.157Z,740.00
2023-07-28T06:08:59.041Z,756.00
2023-07-28T06:09:50.067Z,792.00
2023-07-28T06:10:50.063Z,756.00
2023-07-28T06:11:50.053Z,808.00
2023-07-28T06:12:50.228Z,672.00
2023-07-28T06:13:50.027Z,844.00
2023-07-28T06:14:50.018Z,692.00
2023-07-28T06:15:50.016Z,636.00
2023-07-28T06:16:50.012Z,740.00
2023-07-28T06:17:51.678Z,668.00
2023-07-28T06:18:49.963Z,604.00
2023-07-28T06:19:49.953Z,728.00
2023-07-28T06:20:49.948Z,764.00
2023-07-28T06:21:49.958Z,680.00
2023-07-28T06:22:49.919Z,784.00
2023-07-28T06:23:49.928Z,748.00
2023-07-28T06:24:49.936Z,852.00
2023-07-28T06:25:49.907Z,580.00
2023-07-28T06:26:49.868Z,648.00
2023-07-28T06:27:49.898Z,628.00
2023-07-28T06:28:49.952Z,768.00
2023-07-28T06:29:49.876Z,652.00
2023-07-28T06:30:49.844Z,676.00
2023-07-28T06:31:49.801Z,660.00
2023-07-28T06:32:49.819Z,668.00
2023-07-28T06:33:49.798Z,588.00
2023-07-28T06:34:49.847Z,596.00
2023-07-28T06:35:49.773Z,564.00
2023-07-28T06:36:49.744Z,588.00
2023-07-28T06:37:56.760Z,636.00
2023-07-28T06:38:49.800Z,760.00
2023-07-28T06:39:49.710Z,648.00
2023-07-28T06:40:49.734Z,684.00
2023-07-28T06:41:49.682Z,600.00
2023-07-28T06:42:49.670Z,600.00
2023-07-28T06:43:49.676Z,656.00
2023-07-28T06:44:49.644Z,764.00
2023-07-28T06:45:49.687Z,740.00
2023-07-28T06:46:49.650Z,664.00
2023-07-28T06:47:49.628Z,632.00
2023-07-28T06:48:49.586Z,824.00
2023-07-28T06:49:49.581Z,688.00
2023-07-28T06:50:49.566Z,892.00
2023-07-28T06:51:49.554Z,888.00
2023-07-28T06:52:49.568Z,1200.00
2023-07-28T06:53:49.532Z,968.00
2023-07-28T06:54:49.519Z,824.00
2023-07-28T06:55:49.536Z,832.00
2023-07-28T06:56:49.500Z,1092.00
2023-07-28T06:57:49.518Z,1044.00
2023-07-28T06:58:57.936Z,828.00
2023-07-28T06:59:50.463Z,932.00
2023-07-28T07:00:49.446Z,964.00
2023-07-28T07:01:49.508Z,920.00
2023-07-28T07:02:49.493Z,820.00
2023-07-28T07:03:49.420Z,792.00
2023-07-28T07:04:49.432Z,772.00
2023-07-28T07:05:49.396Z,744.00
2023-07-28T07:06:49.382Z,712.00
2023-07-28T07:07:49.441Z,912.00
2023-07-28T07:08:49.352Z,848.00
2023-07-28T07:09:49.340Z,868.00
2023-07-28T07:10:49.418Z,752.00
2023-07-28T07:11:49.393Z,672.00
2023-07-28T07:12:49.309Z,632.00
2023-07-28T07:13:49.294Z,604.00
2023-07-28T07:14:49.273Z,556.00
2023-07-28T07:15:49.340Z,512.00
2023-07-28T07:16:49.256Z,520.00
2023-07-28T07:17:49.345Z,600.00
2023-07-28T07:18:49.241Z,828.00
2023-07-28T07:19:49.224Z,640.00
2023-07-28T07:20:49.203Z,668.00
2023-07-28T07:21:49.192Z,576.00
2023-07-28T07:22:49.227Z,652.00
2023-07-28T07:23:49.188Z,708.00
2023-07-28T07:24:49.151Z,688.00
2023-07-28T07:25:49.149Z,1012.00
2023-07-28T07:26:49.135Z,1260.00
2023-07-28T07:27:49.170Z,1048.00
2023-07-28T07:28:49.154Z,1044.00
2023-07-28T07:29:49.108Z,1164.00
2023-07-28T07:30:49.140Z,1332.00
2023-07-28T07:31:49.126Z,1368.00
2023-07-28T07:32:49.070Z,1308.00
2023-07-28T07:33:49.107Z,1036.00
2023-07-28T07:34:49.074Z,1172.00
2023-07-28T07:35:49.046Z,1172.00
2023-07-28T07:36:49.028Z,1144.00
2023-07-28T07:37:49.029Z,944.00
2023-07-28T07:38:48.994Z,880.00
2023-07-28T07:39:49.020Z,960.00
2023-07-28T07:40:49.014Z,1132.00
2023-07-28T07:41:48.995Z,1020.00
2023-07-28T07:42:48.962Z,940.00
2023-07-28T07:43:49.092Z,972.00
2023-07-28T07:44:48.934Z,1044.00
2023-07-28T07:45:48.950Z,1220.00
2023-07-28T07:46:49.004Z,1436.00
2023-07-28T07:47:49.008Z,1636.00
2023-07-28T07:48:48.922Z,1696.00
2023-07-28T07:49:48.899Z,1204.00
2023-07-28T07:50:48.864Z,980.00
2023-07-28T07:51:48.865Z,1040.00
2023-07-28T07:52:48.915Z,1420.00
2023-07-28T07:53:48.845Z,1520.00
2023-07-28T07:54:48.822Z,1504.00
2023-07-28T07:55:48.814Z,1204.00
2023-07-28T07:56:48.834Z,1088.00
2023-07-28T07:57:48.840Z,1308.00
2023-07-28T07:58:48.779Z,1336.00
2023-07-28T07:59:48.780Z,1456.00
2023-07-28T08:00:48.769Z,1468.00
2023-07-28T08:01:48.763Z,1272.00
2023-07-28T08:02:48.770Z,1464.00
2023-07-28T08:03:48.773Z,1340.00
2023-07-28T08:04:48.755Z,1408.00
2023-07-28T08:05:48.720Z,1568.00
2023-07-28T08:06:48.690Z,1508.00
2023-07-28T08:07:48.682Z,1320.00
2023-07-28T08:08:48.705Z,1064.00
2023-07-28T08:09:48.656Z,1036.00
2023-07-28T08:10:48.645Z,1304.00
2023-07-28T08:11:48.631Z,1324.00
2023-07-28T08:12:48.661Z,1344.00
2023-07-28T08:13:48.614Z,1224.00
2023-07-28T08:14:48.593Z,1696.00
2023-07-28T08:15:48.633Z,1636.00
2023-07-28T08:16:48.572Z,1660.00
2023-07-28T08:17:48.580Z,1416.00
2023-07-28T08:18:48.605Z,1220.00
2023-07-28T08:19:48.543Z,1220.00
2023-07-28T08:20:48.537Z,1272.00
2023-07-28T08:21:48.528Z,940.00
2023-07-28T08:22:48.509Z,944.00
2023-07-28T08:23:48.566Z,1228.00
2023-07-28T08:24:48.482Z,1184.00
2023-07-28T08:25:48.473Z,1544.00
2023-07-28T08:26:48.516Z,1808.00
2023-07-28T08:27:48.478Z,1904.00
2023-07-28T08:28:48.439Z,1708.00
2023-07-28T08:29:48.468Z,1860.00
2023-07-28T08:30:48.485Z,1848.00
2023-07-28T08:31:48.405Z,1636.00
2023-07-28T08:32:48.420Z,1556.00
2023-07-28T08:33:48.376Z,1512.00
2023-07-28T08:34:48.377Z,1708.00
2023-07-28T08:35:48.442Z,1788.00
2023-07-28T08:36:48.370Z,1856.00
2023-07-28T08:37:48.333Z,1784.00
2023-07-28T08:38:48.313Z,1424.00
2023-07-28T08:39:48.335Z,1336.00
2023-07-28T08:40:48.360Z,1220.00
2023-07-28T08:41:48.304Z,1124.00
2023-07-28T08:42:48.275Z,1176.00
2023-07-28T08:43:48.263Z,1156.00
2023-07-28T08:44:48.259Z,1432.00
2023-07-28T08:45:48.278Z,1076.00
2023-07-28T08:46:48.279Z,1320.00
2023-07-28T08:47:48.331Z,1844.00
2023-07-28T08:48:48.276Z,1788.00
2023-07-28T08:49:50.718Z,1640.00
2023-07-28T08:50:48.175Z,1384.00
2023-07-28T08:51:48.162Z,1528.00
2023-07-28T08:52:48.210Z,1344.00
2023-07-28T08:53:48.182Z,1592.00
2023-07-28T08:54:48.188Z,1284.00
2023-07-28T08:55:48.121Z,1232.00
2023-07-28T08:56:48.104Z,1172.00
2023-07-28T08:57:48.272Z,1348.00
2023-07-28T08:58:48.084Z,1316.00
2023-07-28T08:59:48.073Z,844.00
2023-07-28T09:00:48.090Z,928.00
2023-07-28T09:01:48.067Z,1196.00
2023-07-28T09:02:48.088Z,1108.00
2023-07-28T09:03:48.035Z,1128.00
2023-07-28T09:04:48.035Z,1164.00
2023-07-28T09:05:48.010Z,1304.00
2023-07-28T09:06:47.990Z,1016.00
2023-07-28T09:07:48.028Z,1108.00
2023-07-28T09:08:47.976Z,960.00
2023-07-28T09:09:47.961Z,956.00
2023-07-28T09:10:47.943Z,1036.00
2023-07-28T09:11:47.937Z,920.00
2023-07-28T09:12:47.937Z,1060.00
2023-07-28T09:13:47.962Z,1304.00
2023-07-28T09:14:47.900Z,1600.00
2023-07-28T09:15:47.892Z,1252.00
2023-07-28T09:16:48.045Z,2148.00
2023-07-28T09:17:48.041Z,2292.00
2023-07-28T09:18:47.887Z,1820.00
2023-07-28T09:19:47.844Z,2136.00
2023-07-28T09:20:47.866Z,2028.00
2023-07-28T09:21:47.823Z,1432.00
2023-07-28T09:22:47.854Z,932.00
2023-07-28T09:23:47.802Z,716.00
2023-07-28T09:24:47.784Z,636.00
2023-07-28T09:25:47.772Z,632.00
2023-07-28T09:26:47.761Z,724.00
2023-07-28T09:27:47.836Z,828.00
2023-07-28T09:28:47.924Z,704.00
2023-07-28T09:29:47.731Z,932.00
2023-07-28T09:30:47.888Z,1196.00
2023-07-28T09:31:47.712Z,1300.00
2023-07-28T09:32:47.755Z,1428.00
2023-07-28T09:33:47.769Z,1732.00
2023-07-28T09:34:47.667Z,1832.00
2023-07-28T09:35:47.719Z,1564.00
2023-07-28T09:36:47.664Z,1580.00
2023-07-28T09:37:47.634Z,1736.00
2023-07-28T09:38:47.656Z,1980.00
2023-07-28T09:39:47.652Z,2068.00
2023-07-28T09:40:47.630Z,2316.00
2023-07-28T09:41:47.653Z,2452.00
2023-07-28T09:42:47.616Z,2476.00
2023-07-28T09:43:47.563Z,2360.00
2023-07-28T09:44:47.554Z,2036.00
2023-07-28T09:45:47.601Z,1952.00
2023-07-28T09:46:47.571Z,2416.00
2023-07-28T09:47:47.522Z,1904.00
2023-07-28T09:48:47.541Z,1460.00
2023-07-28T09:49:47.496Z,1040.00
2023-07-28T09:50:47.534Z,948.00
2023-07-28T09:51:47.486Z,912.00
2023-07-28T09:52:47.461Z,1020.00
2023-07-28T09:53:47.453Z,1268.00
2023-07-28T09:54:47.430Z,1468.00
2023-07-28T09:55:47.493Z,1612.00
2023-07-28T09:56:47.410Z,1252.00
2023-07-28T09:57:47.394Z,1268.00
2023-07-28T09:58:47.387Z,1308.00
2023-07-28T09:59:47.377Z,1508.00
2023-07-28T10:00:47.444Z,1628.00
2023-07-28T10:01:48.361Z,2012.00
2023-07-28T10:02:47.431Z,2192.00
2023-07-28T10:03:47.529Z,2408.00
2023-07-28T10:04:47.311Z,2272.00
2023-07-28T10:05:47.299Z,1412.00
2023-07-28T10:06:47.389Z,1592.00
2023-07-28T10:07:47.888Z,1740.00
2023-07-28T10:08:47.288Z,1392.00
2023-07-28T10:09:47.253Z,848.00
2023-07-28T10:10:47.244Z,960.00
2023-07-28T10:11:47.302Z,1532.00
2023-07-28T10:12:47.236Z,1408.00
2023-07-28T10:13:47.270Z,1860.00
2023-07-28T10:14:47.241Z,1188.00
2023-07-28T10:15:47.204Z,1052.00
2023-07-28T10:16:47.218Z,1360.00
2023-07-28T10:17:47.187Z,864.00
2023-07-28T10:18:47.154Z,948.00
2023-07-28T10:19:47.173Z,1828.00
2023-07-28T10:20:47.128Z,2304.00
2023-07-28T10:21:47.202Z,2160.00
2023-07-28T10:22:47.203Z,2008.00
2023-07-28T10:23:47.081Z,2212.00
2023-07-28T10:24:47.094Z,2984.00
2023-07-28T10:25:47.072Z,2224.00
2023-07-28T10:26:47.110Z,2912.00
2023-07-28T10:27:47.036Z,2892.00
2023-07-28T10:28:47.029Z,2284.00
2023-07-28T10:29:47.016Z,2440.00
2023-07-28T10:30:47.008Z,2032.00
2023-07-28T10:31:47.021Z,2740.00
2023-07-28T10:32:47.050Z,2000.00
2023-07-28T10:33:46.972Z,2240.00
2023-07-28T10:34:46.958Z,2500.00
2023-07-28T10:35:46.974Z,2184.00
2023-07-28T10:36:46.949Z,2088.00
2023-07-28T10:37:46.918Z,1740.00
2023-07-28T10:38:46.960Z,2072.00
2023-07-28T10:39:46.901Z,1892.00
2023-07-28T10:40:46.918Z,1888.00
2023-07-28T10:41:46.868Z,2136.00
2023-07-28T10:42:46.860Z,2228.00
2023-07-28T10:43:46.892Z,1924.00
2023-07-28T10:44:46.941Z,2060.00
2023-07-28T10:45:46.875Z,2212.00
2023-07-28T10:46:46.876Z,2252.00
2023-07-28T10:47:46.840Z,2416.00
2023-07-28T10:48:46.802Z,2552.00
2023-07-28T10:49:46.857Z,2396.00
2023-07-28T10:50:46.766Z,2428.00
2023-07-28T10:51:46.785Z,2284.00
2023-07-28T10:52:46.756Z,2272.00
2023-07-28T10:53:46.741Z,2336.00
2023-07-28T10:54:46.721Z,2112.00
2023-07-28T10:55:46.708Z,2368.00
2023-07-28T10:56:46.746Z,2244.00
2023-07-28T10:57:46.699Z,2568.00
2023-07-28T10:58:46.746Z,2440.00
2023-07-28T10:59:46.659Z,2380.00
2023-07-28T11:00:46.742Z,2344.00
2023-07-28T11:01:46.679Z,2312.00
2023-07-28T11:02:46.810Z,2512.00
2023-07-28T11:03:46.610Z,2708.00
2023-07-28T11:04:46.600Z,2296.00
2023-07-28T11:05:46.595Z,2388.00
2023-07-28T11:06:46.627Z,2320.00
2023-07-28T11:07:46.609Z,2384.00
2023-07-28T11:08:46.576Z,2392.00
2023-07-28T11:09:46.550Z,1936.00
2023-07-28T11:10:46.562Z,1700.00
2023-07-28T11:11:47.749Z,2168.00
2023-07-28T11:12:46.523Z,1716.00
2023-07-28T11:13:46.509Z,1228.00
2023-07-28T11:14:46.532Z,1012.00
2023-07-28T11:15:46.460Z,948.00
2023-07-28T11:16:46.468Z,872.00
2023-07-28T11:17:46.852Z,1264.00
2023-07-28T11:18:46.433Z,944.00
2023-07-28T11:19:46.433Z,804.00
2023-07-28T11:20:46.414Z,660.00
2023-07-28T11:21:46.403Z,940.00
2023-07-28T11:22:46.521Z,1152.00
2023-07-28T11:23:46.389Z,1804.00
2023-07-28T11:24:46.374Z,2140.00
2023-07-28T11:25:46.360Z,1900.00
2023-07-28T11:26:46.347Z,2376.00
2023-07-28T11:27:46.381Z,2388.00
2023-07-28T11:28:46.331Z,2376.00
2023-07-28T11:29:46.330Z,2172.00
2023-07-28T11:30:46.325Z,1900.00
2023-07-28T11:31:46.289Z,2316.00
2023-07-28T11:32:46.312Z,2376.00
2023-07-28T11:33:46.301Z,2588.00
2023-07-28T11:34:46.292Z,2968.00
2023-07-28T11:35:46.249Z,2888.00
2023-07-28T11:36:46.227Z,2816.00
2023-07-28T11:37:46.220Z,2788.00
2023-07-28T11:38:46.203Z,2584.00
2023-07-28T11:39:46.242Z,2520.00
2023-07-28T11:40:46.179Z,2360.00
2023-07-28T11:41:46.170Z,2812.00
2023-07-28T11:42:46.239Z,2584.00
2023-07-28T11:43:46.143Z,2456.00
2023-07-28T11:44:46.167Z,1924.00
2023-07-28T11:45:46.173Z,2048.00
2023-07-28T11:46:46.153Z,1624.00
2023-07-28T11:47:46.168Z,1620.00
2023-07-28T11:48:46.145Z,2036.00
2023-07-28T11:49:46.068Z,1836.00
2023-07-28T11:50:46.123Z,1512.00
2023-07-28T11:51:46.059Z,1760.00
2023-07-28T11:52:46.036Z,1904.00
2023-07-28T11:53:46.038Z,1884.00
2023-07-28T11:54:46.013Z,1456.00
2023-07-28T11:55:46.052Z,1240.00
2023-07-28T11:56:46.005Z,1236.00
2023-07-28T11:57:45.978Z,1560.00
2023-07-28T11:58:45.965Z,972.00
2023-07-28T11:59:45.963Z,1168.00
2023-07-28T12:00:46.001Z,1116.00
2023-07-28T12:02:46.124Z,1084.00
2023-07-28T12:03:46.024Z,1364.00
2023-07-28T12:07:45.860Z,1408.00
2023-07-28T12:08:45.913Z,1084.00
2023-07-28T12:09:45.841Z,1304.00
2023-07-28T12:10:45.833Z,1652.00
2023-07-28T12:14:49.530Z,1892.00
2023-07-28T12:14:50.617Z,1732.00
2023-07-28T12:19:45.837Z,1688.00
2023-07-28T12:20:45.730Z,1756.00
2023-07-28T12:21:45.717Z,1876.00
2023-07-28T12:22:45.709Z,1888.00
2023-07-28T12:24:45.719Z,1464.00
2023-07-28T12:25:45.654Z,1732.00
2023-07-28T12:26:45.677Z,1672.00
2023-07-28T12:27:45.627Z,1188.00
2023-07-28T12:28:45.658Z,1004.00
2023-07-28T12:30:45.730Z,1080.00
2023-07-28T12:31:46.676Z,1148.00
2023-07-28T12:33:49.266Z,816.00
2023-07-28T12:34:51.275Z,780.00
2023-07-28T12:38:45.511Z,920.00
2023-07-28T12:41:47.960Z,604.00
2023-07-28T12:46:45.565Z,916.00
2023-07-28T12:47:45.424Z,956.00
2023-07-28T12:48:48.712Z,860.00
2023-07-28T12:49:52.210Z,912.00
2023-07-28T12:50:46.416Z,884.00
2023-07-28T12:51:57.879Z,792.00
2023-07-28T12:53:45.335Z,1208.00
2023-07-28T12:54:45.324Z,1432.00
2023-07-28T12:56:45.387Z,2192.00
2023-07-28T12:57:45.352Z,2064.00
2023-07-28T13:01:45.247Z,2352.00
2023-07-28T13:02:45.426Z,2596.00